sensor_id;sensor_type;location;lat;lon;timestamp;P1;durP1;ratioP1;P2;durP2;ratioP2
35891;SDS011;21993;42.672;23.296;2022-12-22T00:01:28;40.10;;;20.03;;
35891;SDS011;21993;42.672;23.296;2022-12-22T00:04:12;41.60;;;23.03;;
35891;SDS011;21993;42.672;23.296;2022-12-22T00:06:56;52.00;;;24.30;;
35891;SDS011;21993;42.672;23.296;2022-12-22T00:09:40;35.97;;;19.73;;
35891;SDS011;21993;42.672;23.296;2022-12-22T00:12:24;37.53;;;19.23;;
35891;SDS011;21993;42.672;23.296;2022-12-22T00:15:13;39.27;;;19.80;;
35891;SDS011;21993;42.672;23.296;2022-12-22T00:17:59;47.67;;;19.17;;
35891;SDS011;21993;42.672;23.296;2022-12-22T00:20:43;37.23;;;19.23;;
35891;SDS011;21993;42.672;23.296;2022-12-22T00:23:28;35.03;;;18.17;;
35891;SDS011;21993;42.672;23.296;2022-12-22T00:26:12;44.77;;;20.60;;
35891;SDS011;21993;42.672;23.296;2022-12-22T00:28:56;33.27;;;17.87;;
35891;SDS011;21993;42.672;23.296;2022-12-22T00:31:40;38.00;;;17.43;;
35891;SDS011;21993;42.672;23.296;2022-12-22T00:34:24;36.17;;;16.73;;
35891;SDS011;21993;42.672;23.296;2022-12-22T00:37:13;35.30;;;18.53;;
35891;SDS011;21993;42.672;23.296;2022-12-22T00:40:00;35.10;;;18.17;;
35891;SDS011;21993;42.672;23.296;2022-12-22T00:42:44;34.80;;;18.80;;
35891;SDS011;21993;42.672;23.296;2022-12-22T00:45:28;39.77;;;20.17;;
35891;SDS011;21993;42.672;23.296;2022-12-22T00:48:23;39.50;;;18.97;;
35891;SDS011;21993;42.672;23.296;2022-12-22T00:51:08;31.67;;;16.50;;
35891;SDS011;21993;42.672;23.296;2022-12-22T00:53:54;33.43;;;16.90;;
35891;SDS011;21993;42.672;23.296;2022-12-22T00:56:39;32.67;;;18.30;;
35891;SDS011;21993;42.672;23.296;2022-12-22T00:59:24;36.27;;;18.57;;
35891;SDS011;21993;42.672;23.296;2022-12-22T01:02:10;35.73;;;16.97;;
35891;SDS011;21993;42.672;23.296;2022-12-22T01:04:54;40.13;;;19.93;;
35891;SDS011;21993;42.672;23.296;2022-12-22T01:07:38;38.70;;;17.27;;
35891;SDS011;21993;42.672;23.296;2022-12-22T01:10:22;35.83;;;18.13;;
35891;SDS011;21993;42.672;23.296;2022-12-22T01:13:12;36.30;;;19.20;;
35891;SDS011;21993;42.672;23.296;2022-12-22T01:15:57;42.83;;;18.57;;
35891;SDS011;21993;42.672;23.296;2022-12-22T01:18:42;40.27;;;20.57;;
35891;SDS011;21993;42.672;23.296;2022-12-22T01:21:26;35.87;;;18.60;;
35891;SDS011;21993;42.672;23.296;2022-12-22T01:24:13;37.80;;;17.90;;
35891;SDS011;21993;42.672;23.296;2022-12-22T01:27:00;44.37;;;19.73;;
35891;SDS011;21993;42.672;23.296;2022-12-22T01:29:44;38.03;;;19.17;;
35891;SDS011;21993;42.672;23.296;2022-12-22T01:32:28;32.03;;;17.90;;
35891;SDS011;21993;42.672;23.296;2022-12-22T01:35:16;45.47;;;19.97;;
35891;SDS011;21993;42.672;23.296;2022-12-22T01:38:04;35.30;;;17.90;;
35891;SDS011;21993;42.672;23.296;2022-12-22T01:40:48;39.20;;;18.73;;
35891;SDS011;21993;42.672;23.296;2022-12-22T01:43:33;35.90;;;18.40;;
35891;SDS011;21993;42.672;23.296;2022-12-22T01:49:10;37.73;;;19.43;;
35891;SDS011;21993;42.672;23.296;2022-12-22T01:51:57;37.80;;;20.33;;
35891;SDS011;21993;42.672;23.296;2022-12-22T01:54:41;37.10;;;18.80;;
35891;SDS011;21993;42.672;23.296;2022-12-22T01:57:26;35.33;;;18.37;;
35891;SDS011;21993;42.672;23.296;2022-12-22T02:00:11;33.90;;;18.53;;
35891;SDS011;21993;42.672;23.296;2022-12-22T02:02:56;35.80;;;19.17;;
35891;SDS011;21993;42.672;23.296;2022-12-22T02:05:49;54.23;;;26.07;;
35891;SDS011;21993;42.672;23.296;2022-12-22T02:09:05;48.97;;;25.00;;
35891;SDS011;21993;42.672;23.296;2022-12-22T02:12:06;55.43;;;24.10;;
35891;SDS011;21993;42.672;23.296;2022-12-22T02:29:02;70.33;;;32.97;;
35891;SDS011;21993;42.672;23.296;2022-12-22T02:31:47;72.13;;;33.83;;
35891;SDS011;21993;42.672;23.296;2022-12-22T02:34:31;76.90;;;38.23;;
35891;SDS011;21993;42.672;23.296;2022-12-22T02:40:15;86.47;;;38.43;;
35891;SDS011;21993;42.672;23.296;2022-12-22T02:43:16;64.83;;;33.40;;
35891;SDS011;21993;42.672;23.296;2022-12-22T02:46:14;88.23;;;38.17;;
35891;SDS011;21993;42.672;23.296;2022-12-22T02:49:02;75.47;;;39.27;;
35891;SDS011;21993;42.672;23.296;2022-12-22T02:51:56;81.67;;;37.10;;
35891;SDS011;21993;42.672;23.296;2022-12-22T02:54:45;78.13;;;40.37;;
35891;SDS011;21993;42.672;23.296;2022-12-22T02:57:29;65.03;;;32.97;;
35891;SDS011;21993;42.672;23.296;2022-12-22T03:00:13;68.70;;;34.77;;
35891;SDS011;21993;42.672;23.296;2022-12-22T03:02:58;69.47;;;34.93;;
35891;SDS011;21993;42.672;23.296;2022-12-22T03:05:42;89.17;;;41.40;;
35891;SDS011;21993;42.672;23.296;2022-12-22T03:08:26;81.73;;;37.93;;
35891;SDS011;21993;42.672;23.296;2022-12-22T03:11:10;51.27;;;28.90;;
35891;SDS011;21993;42.672;23.296;2022-12-22T03:13:54;63.30;;;30.73;;
35891;SDS011;21993;42.672;23.296;2022-12-22T03:16:38;58.00;;;26.17;;
35891;SDS011;21993;42.672;23.296;2022-12-22T03:19:21;59.60;;;32.00;;
35891;SDS011;21993;42.672;23.296;2022-12-22T03:22:05;57.87;;;25.70;;
35891;SDS011;21993;42.672;23.296;2022-12-22T03:24:49;54.50;;;24.47;;
35891;SDS011;21993;42.672;23.296;2022-12-22T03:27:33;47.67;;;23.93;;
35891;SDS011;21993;42.672;23.296;2022-12-22T03:29:59;49.27;;;25.80;;
35891;SDS011;21993;42.672;23.296;2022-12-22T03:32:24;57.00;;;27.30;;
35891;SDS011;21993;42.672;23.296;2022-12-22T03:34:49;58.13;;;26.73;;
35891;SDS011;21993;42.672;23.296;2022-12-22T03:37:15;48.17;;;23.83;;
35891;SDS011;21993;42.672;23.296;2022-12-22T03:39:40;44.50;;;24.07;;
35891;SDS011;21993;42.672;23.296;2022-12-22T03:42:06;44.27;;;21.87;;
35891;SDS011;21993;42.672;23.296;2022-12-22T03:44:49;45.73;;;23.63;;
35891;SDS011;21993;42.672;23.296;2022-12-22T03:47:33;42.97;;;22.13;;
35891;SDS011;21993;42.672;23.296;2022-12-22T03:49:59;52.17;;;23.70;;
35891;SDS011;21993;42.672;23.296;2022-12-22T03:52:24;46.27;;;21.70;;
35891;SDS011;21993;42.672;23.296;2022-12-22T03:54:50;48.13;;;25.00;;
35891;SDS011;21993;42.672;23.296;2022-12-22T03:57:15;46.27;;;23.70;;
35891;SDS011;21993;42.672;23.296;2022-12-22T03:59:40;44.13;;;23.47;;
35891;SDS011;21993;42.672;23.296;2022-12-22T04:02:06;46.17;;;23.50;;
35891;SDS011;21993;42.672;23.296;2022-12-22T04:04:31;47.97;;;24.90;;
35891;SDS011;21993;42.672;23.296;2022-12-22T04:06:57;44.83;;;22.27;;
35891;SDS011;21993;42.672;23.296;2022-12-22T04:09:22;46.73;;;22.77;;
35891;SDS011;21993;42.672;23.296;2022-12-22T04:11:49;46.43;;;21.00;;
35891;SDS011;21993;42.672;23.296;2022-12-22T04:14:33;41.27;;;20.67;;
35891;SDS011;21993;42.672;23.296;2022-12-22T04:16:58;43.30;;;21.20;;
35891;SDS011;21993;42.672;23.296;2022-12-22T04:19:24;42.00;;;21.30;;
35891;SDS011;21993;42.672;23.296;2022-12-22T04:21:49;47.47;;;22.80;;
35891;SDS011;21993;42.672;23.296;2022-12-22T04:24:15;42.93;;;22.13;;
35891;SDS011;21993;42.672;23.296;2022-12-22T04:26:40;38.50;;;20.87;;
35891;SDS011;21993;42.672;23.296;2022-12-22T04:29:05;42.57;;;21.83;;
35891;SDS011;21993;42.672;23.296;2022-12-22T04:31:31;49.30;;;21.87;;
35891;SDS011;21993;42.672;23.296;2022-12-22T04:33:56;38.63;;;20.30;;
35891;SDS011;21993;42.672;23.296;2022-12-22T04:36:22;40.87;;;20.27;;
35891;SDS011;21993;42.672;23.296;2022-12-22T04:38:47;38.33;;;20.57;;
35891;SDS011;21993;42.672;23.296;2022-12-22T04:41:12;42.00;;;20.67;;
35891;SDS011;21993;42.672;23.296;2022-12-22T04:43:38;39.33;;;22.57;;
35891;SDS011;21993;42.672;23.296;2022-12-22T04:46:04;46.93;;;21.47;;
35891;SDS011;21993;42.672;23.296;2022-12-22T04:48:29;47.23;;;23.50;;
35891;SDS011;21993;42.672;23.296;2022-12-22T04:50:56;39.33;;;22.30;;
35891;SDS011;21993;42.672;23.296;2022-12-22T04:53:23;52.33;;;24.20;;
35891;SDS011;21993;42.672;23.296;2022-12-22T04:55:52;46.63;;;23.50;;
35891;SDS011;21993;42.672;23.296;2022-12-22T04:58:20;41.30;;;22.97;;
35891;SDS011;21993;42.672;23.296;2022-12-22T05:00:46;49.67;;;23.53;;
35891;SDS011;21993;42.672;23.296;2022-12-22T05:03:11;58.40;;;26.13;;
35891;SDS011;21993;42.672;23.296;2022-12-22T05:05:36;49.23;;;23.00;;
35891;SDS011;21993;42.672;23.296;2022-12-22T05:08:03;45.27;;;23.63;;
35891;SDS011;21993;42.672;23.296;2022-12-22T05:10:28;49.03;;;24.07;;
35891;SDS011;21993;42.672;23.296;2022-12-22T05:12:54;47.73;;;24.03;;
35891;SDS011;21993;42.672;23.296;2022-12-22T05:15:21;60.60;;;24.03;;
35891;SDS011;21993;42.672;23.296;2022-12-22T05:17:57;52.10;;;26.33;;
35891;SDS011;21993;42.672;23.296;2022-12-22T05:20:24;65.33;;;28.93;;
35891;SDS011;21993;42.672;23.296;2022-12-22T05:22:50;66.73;;;32.03;;
35891;SDS011;21993;42.672;23.296;2022-12-22T05:25:16;67.33;;;33.60;;
35891;SDS011;21993;42.672;23.296;2022-12-22T05:27:46;64.47;;;35.40;;
35891;SDS011;21993;42.672;23.296;2022-12-22T05:30:13;74.43;;;34.23;;
35891;SDS011;21993;42.672;23.296;2022-12-22T05:32:39;76.30;;;33.10;;
35891;SDS011;21993;42.672;23.296;2022-12-22T05:35:05;80.40;;;37.07;;
35891;SDS011;21993;42.672;23.296;2022-12-22T05:37:32;78.37;;;34.97;;
35891;SDS011;21993;42.672;23.296;2022-12-22T05:39:57;84.93;;;38.40;;
35891;SDS011;21993;42.672;23.296;2022-12-22T05:42:23;71.77;;;33.30;;
35891;SDS011;21993;42.672;23.296;2022-12-22T05:47:32;95.80;;;43.63;;
35891;SDS011;21993;42.672;23.296;2022-12-22T05:49:58;100.40;;;43.47;;
35891;SDS011;21993;42.672;23.296;2022-12-22T05:52:24;93.57;;;42.37;;
35891;SDS011;21993;42.672;23.296;2022-12-22T05:54:49;89.23;;;41.50;;
35891;SDS011;21993;42.672;23.296;2022-12-22T05:57:14;84.13;;;40.97;;
35891;SDS011;21993;42.672;23.296;2022-12-22T05:59:40;91.83;;;42.50;;
35891;SDS011;21993;42.672;23.296;2022-12-22T06:02:05;88.43;;;42.20;;
35891;SDS011;21993;42.672;23.296;2022-12-22T06:04:31;86.33;;;39.73;;
35891;SDS011;21993;42.672;23.296;2022-12-22T06:06:56;80.23;;;38.37;;
35891;SDS011;21993;42.672;23.296;2022-12-22T06:09:22;87.87;;;42.57;;
35891;SDS011;21993;42.672;23.296;2022-12-22T06:11:47;90.70;;;41.47;;
35891;SDS011;21993;42.672;23.296;2022-12-22T06:14:12;84.90;;;42.97;;
35891;SDS011;21993;42.672;23.296;2022-12-22T06:16:38;83.60;;;40.33;;
35891;SDS011;21993;42.672;23.296;2022-12-22T06:19:03;80.33;;;39.37;;
35891;SDS011;21993;42.672;23.296;2022-12-22T06:21:28;92.57;;;41.33;;
35891;SDS011;21993;42.672;23.296;2022-12-22T06:23:54;93.80;;;44.97;;
35891;SDS011;21993;42.672;23.296;2022-12-22T06:26:19;94.23;;;44.23;;
35891;SDS011;21993;42.672;23.296;2022-12-22T06:28:45;98.47;;;43.07;;
35891;SDS011;21993;42.672;23.296;2022-12-22T06:31:10;102.57;;;45.17;;
35891;SDS011;21993;42.672;23.296;2022-12-22T06:33:36;85.53;;;41.37;;
35891;SDS011;21993;42.672;23.296;2022-12-22T06:36:05;105.77;;;43.70;;
35891;SDS011;21993;42.672;23.296;2022-12-22T06:38:31;85.13;;;43.00;;
35891;SDS011;21993;42.672;23.296;2022-12-22T06:40:57;81.07;;;39.00;;
35891;SDS011;21993;42.672;23.296;2022-12-22T06:43:23;91.43;;;43.03;;
35891;SDS011;21993;42.672;23.296;2022-12-22T06:45:48;99.43;;;46.07;;
35891;SDS011;21993;42.672;23.296;2022-12-22T06:48:13;99.13;;;45.90;;
35891;SDS011;21993;42.672;23.296;2022-12-22T06:50:39;102.73;;;47.23;;
35891;SDS011;21993;42.672;23.296;2022-12-22T06:53:05;99.33;;;44.33;;
35891;SDS011;21993;42.672;23.296;2022-12-22T06:55:31;98.10;;;44.03;;
35891;SDS011;21993;42.672;23.296;2022-12-22T06:57:56;81.50;;;41.70;;
35891;SDS011;21993;42.672;23.296;2022-12-22T07:00:22;90.53;;;44.57;;
35891;SDS011;21993;42.672;23.296;2022-12-22T07:02:47;89.20;;;43.23;;
35891;SDS011;21993;42.672;23.296;2022-12-22T07:05:13;90.23;;;43.57;;
35891;SDS011;21993;42.672;23.296;2022-12-22T07:07:39;84.43;;;41.93;;
35891;SDS011;21993;42.672;23.296;2022-12-22T07:10:05;91.27;;;43.03;;
35891;SDS011;21993;42.672;23.296;2022-12-22T07:12:31;99.33;;;43.73;;
35891;SDS011;21993;42.672;23.296;2022-12-22T07:14:57;94.10;;;43.77;;
35891;SDS011;21993;42.672;23.296;2022-12-22T07:17:22;92.70;;;48.70;;
35891;SDS011;21993;42.672;23.296;2022-12-22T07:19:47;93.70;;;46.37;;
35891;SDS011;21993;42.672;23.296;2022-12-22T07:22:13;108.73;;;46.10;;
35891;SDS011;21993;42.672;23.296;2022-12-22T07:24:38;91.00;;;44.00;;
35891;SDS011;21993;42.672;23.296;2022-12-22T07:27:04;96.53;;;41.43;;
35891;SDS011;21993;42.672;23.296;2022-12-22T07:29:29;84.10;;;44.87;;
35891;SDS011;21993;42.672;23.296;2022-12-22T07:31:54;87.33;;;42.93;;
35891;SDS011;21993;42.672;23.296;2022-12-22T07:34:20;100.30;;;44.10;;
35891;SDS011;21993;42.672;23.296;2022-12-22T07:36:45;87.33;;;42.67;;
35891;SDS011;21993;42.672;23.296;2022-12-22T07:39:11;96.73;;;44.77;;
35891;SDS011;21993;42.672;23.296;2022-12-22T07:41:37;96.47;;;42.67;;
35891;SDS011;21993;42.672;23.296;2022-12-22T07:44:21;87.63;;;42.70;;
35891;SDS011;21993;42.672;23.296;2022-12-22T07:46:47;94.17;;;45.17;;
35891;SDS011;21993;42.672;23.296;2022-12-22T07:49:12;100.00;;;45.90;;
35891;SDS011;21993;42.672;23.296;2022-12-22T07:51:56;96.90;;;43.47;;
35891;SDS011;21993;42.672;23.296;2022-12-22T07:54:22;95.77;;;46.80;;
35891;SDS011;21993;42.672;23.296;2022-12-22T07:56:48;89.13;;;44.83;;
35891;SDS011;21993;42.672;23.296;2022-12-22T07:59:14;95.83;;;47.00;;
35891;SDS011;21993;42.672;23.296;2022-12-22T08:01:40;87.53;;;44.03;;
35891;SDS011;21993;42.672;23.296;2022-12-22T08:04:06;99.30;;;44.50;;
35891;SDS011;21993;42.672;23.296;2022-12-22T08:06:32;97.70;;;47.37;;
35891;SDS011;21993;42.672;23.296;2022-12-22T08:08:58;93.97;;;43.97;;
35891;SDS011;21993;42.672;23.296;2022-12-22T08:11:24;88.37;;;45.67;;
35891;SDS011;21993;42.672;23.296;2022-12-22T08:13:49;86.00;;;44.20;;
35891;SDS011;21993;42.672;23.296;2022-12-22T08:16:14;102.13;;;47.67;;
35891;SDS011;21993;42.672;23.296;2022-12-22T08:18:41;95.40;;;44.57;;
35891;SDS011;21993;42.672;23.296;2022-12-22T08:21:07;86.23;;;44.17;;
35891;SDS011;21993;42.672;23.296;2022-12-22T08:23:33;96.07;;;46.43;;
35891;SDS011;21993;42.672;23.296;2022-12-22T08:28:29;106.17;;;46.47;;
35891;SDS011;21993;42.672;23.296;2022-12-22T08:30:58;94.53;;;46.90;;
35891;SDS011;21993;42.672;23.296;2022-12-22T08:33:24;89.27;;;45.47;;
35891;SDS011;21993;42.672;23.296;2022-12-22T08:35:50;84.40;;;44.33;;
35891;SDS011;21993;42.672;23.296;2022-12-22T08:38:15;91.97;;;44.57;;
35891;SDS011;21993;42.672;23.296;2022-12-22T08:40:41;79.57;;;43.63;;
35891;SDS011;21993;42.672;23.296;2022-12-22T08:43:08;79.97;;;41.33;;
35891;SDS011;21993;42.672;23.296;2022-12-22T08:45:35;79.67;;;41.97;;
35891;SDS011;21993;42.672;23.296;2022-12-22T08:48:00;79.20;;;39.57;;
35891;SDS011;21993;42.672;23.296;2022-12-22T08:50:26;90.37;;;41.50;;
35891;SDS011;21993;42.672;23.296;2022-12-22T08:52:51;85.77;;;37.60;;
35891;SDS011;21993;42.672;23.296;2022-12-22T08:55:17;75.00;;;39.67;;
35891;SDS011;21993;42.672;23.296;2022-12-22T08:57:42;80.77;;;40.87;;
35891;SDS011;21993;42.672;23.296;2022-12-22T09:00:08;82.53;;;42.63;;
35891;SDS011;21993;42.672;23.296;2022-12-22T09:02:36;86.07;;;41.77;;
35891;SDS011;21993;42.672;23.296;2022-12-22T09:05:02;85.93;;;41.43;;
35891;SDS011;21993;42.672;23.296;2022-12-22T09:07:28;85.77;;;42.00;;
35891;SDS011;21993;42.672;23.296;2022-12-22T09:09:54;79.27;;;43.10;;
35891;SDS011;21993;42.672;23.296;2022-12-22T09:12:21;73.07;;;40.20;;
35891;SDS011;21993;42.672;23.296;2022-12-22T09:14:47;80.43;;;42.03;;
35891;SDS011;21993;42.672;23.296;2022-12-22T09:17:12;83.00;;;43.13;;
35891;SDS011;21993;42.672;23.296;2022-12-22T09:19:37;86.53;;;44.30;;
35891;SDS011;21993;42.672;23.296;2022-12-22T09:22:03;98.70;;;46.20;;
35891;SDS011;21993;42.672;23.296;2022-12-22T09:24:28;87.93;;;45.60;;
35891;SDS011;21993;42.672;23.296;2022-12-22T09:26:53;84.17;;;44.73;;
35891;SDS011;21993;42.672;23.296;2022-12-22T09:29:19;90.60;;;44.10;;
35891;SDS011;21993;42.672;23.296;2022-12-22T09:31:44;79.10;;;43.27;;
35891;SDS011;21993;42.672;23.296;2022-12-22T09:34:10;88.00;;;45.47;;
35891;SDS011;21993;42.672;23.296;2022-12-22T09:36:38;92.93;;;50.13;;
35891;SDS011;21993;42.672;23.296;2022-12-22T09:39:05;85.50;;;47.90;;
35891;SDS011;21993;42.672;23.296;2022-12-22T09:46:59;93.40;;;48.23;;
35891;SDS011;21993;42.672;23.296;2022-12-22T09:49:26;95.93;;;47.30;;
35891;SDS011;21993;42.672;23.296;2022-12-22T09:51:56;97.13;;;48.60;;
35891;SDS011;21993;42.672;23.296;2022-12-22T09:54:26;93.83;;;47.50;;
35891;SDS011;21993;42.672;23.296;2022-12-22T09:56:53;93.93;;;48.07;;
35891;SDS011;21993;42.672;23.296;2022-12-22T09:59:19;95.40;;;50.10;;
35891;SDS011;21993;42.672;23.296;2022-12-22T10:07:39;88.23;;;47.43;;
35891;SDS011;21993;42.672;23.296;2022-12-22T10:10:22;89.33;;;45.90;;
35891;SDS011;21993;42.672;23.296;2022-12-22T10:12:56;79.47;;;44.50;;
35891;SDS011;21993;42.672;23.296;2022-12-22T10:15:24;87.57;;;46.27;;
35891;SDS011;21993;42.672;23.296;2022-12-22T10:17:51;81.07;;;44.70;;
35891;SDS011;21993;42.672;23.296;2022-12-22T10:22:47;82.20;;;45.13;;
35891;SDS011;21993;42.672;23.296;2022-12-22T10:25:27;85.30;;;43.73;;
35891;SDS011;21993;42.672;23.296;2022-12-22T10:27:58;87.60;;;43.80;;
35891;SDS011;21993;42.672;23.296;2022-12-22T10:30:29;84.43;;;43.13;;
35891;SDS011;21993;42.672;23.296;2022-12-22T10:33:04;85.10;;;45.33;;
35891;SDS011;21993;42.672;23.296;2022-12-22T10:40:56;87.27;;;45.13;;
35891;SDS011;21993;42.672;23.296;2022-12-22T10:44:00;79.87;;;45.30;;
35891;SDS011;21993;42.672;23.296;2022-12-22T10:46:34;88.30;;;46.43;;
35891;SDS011;21993;42.672;23.296;2022-12-22T10:54:30;84.47;;;46.07;;
35891;SDS011;21993;42.672;23.296;2022-12-22T11:02:23;82.97;;;47.00;;
35891;SDS011;21993;42.672;23.296;2022-12-22T11:04:51;79.67;;;45.77;;
35891;SDS011;21993;42.672;23.296;2022-12-22T11:07:18;88.70;;;47.17;;
35891;SDS011;21993;42.672;23.296;2022-12-22T11:09:43;77.67;;;42.40;;
35891;SDS011;21993;42.672;23.296;2022-12-22T11:21:22;79.33;;;42.80;;
35891;SDS011;21993;42.672;23.296;2022-12-22T11:27:02;73.30;;;40.83;;
35891;SDS011;21993;42.672;23.296;2022-12-22T11:46:34;68.40;;;39.93;;
35891;SDS011;21993;42.672;23.296;2022-12-22T11:52:20;60.67;;;38.30;;
35891;SDS011;21993;42.672;23.296;2022-12-22T11:55:16;68.00;;;37.67;;
35891;SDS011;21993;42.672;23.296;2022-12-22T12:00:42;62.53;;;37.77;;
35891;SDS011;21993;42.672;23.296;2022-12-22T12:06:03;63.73;;;38.27;;
35891;SDS011;21993;42.672;23.296;2022-12-22T12:11:40;61.30;;;39.73;;
35891;SDS011;21993;42.672;23.296;2022-12-22T12:17:49;70.67;;;40.97;;
35891;SDS011;21993;42.672;23.296;2022-12-22T12:25:43;71.07;;;39.13;;
35891;SDS011;21993;42.672;23.296;2022-12-22T12:28:28;71.67;;;39.60;;
35891;SDS011;21993;42.672;23.296;2022-12-22T12:31:07;64.40;;;39.90;;
35891;SDS011;21993;42.672;23.296;2022-12-22T12:33:47;62.37;;;38.97;;
35891;SDS011;21993;42.672;23.296;2022-12-22T12:39:15;71.60;;;41.63;;
35891;SDS011;21993;42.672;23.296;2022-12-22T12:44:56;74.90;;;44.40;;
35891;SDS011;21993;42.672;23.296;2022-12-22T12:57:54;77.57;;;46.90;;
35891;SDS011;21993;42.672;23.296;2022-12-22T13:00:41;76.30;;;46.60;;
35891;SDS011;21993;42.672;23.296;2022-12-22T13:03:10;79.50;;;46.63;;
35891;SDS011;21993;42.672;23.296;2022-12-22T13:05:59;84.10;;;45.27;;
35891;SDS011;21993;42.672;23.296;2022-12-22T13:08:32;79.90;;;46.33;;
35891;SDS011;21993;42.672;23.296;2022-12-22T13:11:30;75.93;;;44.83;;
35891;SDS011;21993;42.672;23.296;2022-12-22T13:14:00;76.87;;;45.13;;
35891;SDS011;21993;42.672;23.296;2022-12-22T13:16:27;76.30;;;45.20;;
35891;SDS011;21993;42.672;23.296;2022-12-22T13:18:54;79.70;;;45.70;;
35891;SDS011;21993;42.672;23.296;2022-12-22T13:21:43;79.33;;;45.67;;
35891;SDS011;21993;42.672;23.296;2022-12-22T13:26:35;76.40;;;44.47;;
35891;SDS011;21993;42.672;23.296;2022-12-22T13:37:21;73.13;;;44.20;;
35891;SDS011;21993;42.672;23.296;2022-12-22T13:40:08;75.33;;;42.63;;
35891;SDS011;21993;42.672;23.296;2022-12-22T13:42:56;85.53;;;43.43;;
35891;SDS011;21993;42.672;23.296;2022-12-22T13:45:48;72.23;;;42.17;;
35891;SDS011;21993;42.672;23.296;2022-12-22T13:48:17;81.37;;;43.50;;
35891;SDS011;21993;42.672;23.296;2022-12-22T13:50:54;77.10;;;43.70;;
35891;SDS011;21993;42.672;23.296;2022-12-22T13:56:13;82.77;;;43.87;;
35891;SDS011;21993;42.672;23.296;2022-12-22T13:58:42;93.37;;;45.20;;
35891;SDS011;21993;42.672;23.296;2022-12-22T14:03:35;75.50;;;44.27;;
35891;SDS011;21993;42.672;23.296;2022-12-22T14:06:24;77.60;;;44.50;;
35891;SDS011;21993;42.672;23.296;2022-12-22T14:11:40;84.77;;;47.13;;
35891;SDS011;21993;42.672;23.296;2022-12-22T14:14:08;83.43;;;44.53;;
35891;SDS011;21993;42.672;23.296;2022-12-22T14:16:44;81.80;;;44.07;;
35891;SDS011;21993;42.672;23.296;2022-12-22T14:19:18;81.10;;;42.53;;
35891;SDS011;21993;42.672;23.296;2022-12-22T14:21:45;74.80;;;41.17;;
35891;SDS011;21993;42.672;23.296;2022-12-22T14:24:20;77.30;;;40.90;;
35891;SDS011;21993;42.672;23.296;2022-12-22T14:26:50;82.80;;;44.13;;
35891;SDS011;21993;42.672;23.296;2022-12-22T14:29:18;82.37;;;41.20;;
35891;SDS011;21993;42.672;23.296;2022-12-22T14:31:50;73.20;;;38.80;;
35891;SDS011;21993;42.672;23.296;2022-12-22T14:34:23;79.13;;;39.60;;
35891;SDS011;21993;42.672;23.296;2022-12-22T14:36:59;73.37;;;43.07;;
35891;SDS011;21993;42.672;23.296;2022-12-22T14:39:29;78.33;;;40.80;;
35891;SDS011;21993;42.672;23.296;2022-12-22T14:42:02;72.47;;;38.70;;
35891;SDS011;21993;42.672;23.296;2022-12-22T14:44:41;76.37;;;39.43;;
35891;SDS011;21993;42.672;23.296;2022-12-22T14:54:47;99.47;;;51.67;;
35891;SDS011;21993;42.672;23.296;2022-12-22T14:57:15;91.90;;;47.33;;
35891;SDS011;21993;42.672;23.296;2022-12-22T15:00:05;74.10;;;42.83;;
35891;SDS011;21993;42.672;23.296;2022-12-22T15:02:52;74.77;;;41.10;;
35891;SDS011;21993;42.672;23.296;2022-12-22T15:05:53;79.07;;;37.87;;
35891;SDS011;21993;42.672;23.296;2022-12-22T15:11:01;80.50;;;39.70;;
35891;SDS011;21993;42.672;23.296;2022-12-22T15:13:27;80.40;;;38.13;;
35891;SDS011;21993;42.672;23.296;2022-12-22T15:15:54;84.40;;;41.90;;
35891;SDS011;21993;42.672;23.296;2022-12-22T15:18:21;80.33;;;40.00;;
35891;SDS011;21993;42.672;23.296;2022-12-22T15:20:50;86.10;;;43.00;;
35891;SDS011;21993;42.672;23.296;2022-12-22T15:23:16;98.80;;;46.07;;
35891;SDS011;21993;42.672;23.296;2022-12-22T15:25:41;85.43;;;43.30;;
35891;SDS011;21993;42.672;23.296;2022-12-22T15:28:07;90.10;;;43.10;;
35891;SDS011;21993;42.672;23.296;2022-12-22T15:30:33;90.27;;;44.87;;
35891;SDS011;21993;42.672;23.296;2022-12-22T15:33:00;96.23;;;42.77;;
35891;SDS011;21993;42.672;23.296;2022-12-22T15:35:32;90.43;;;42.23;;
35891;SDS011;21993;42.672;23.296;2022-12-22T15:37:59;91.57;;;44.73;;
35891;SDS011;21993;42.672;23.296;2022-12-22T15:40:26;79.87;;;40.23;;
35891;SDS011;21993;42.672;23.296;2022-12-22T15:42:52;80.03;;;38.83;;
35891;SDS011;21993;42.672;23.296;2022-12-22T15:45:18;78.60;;;38.23;;
35891;SDS011;21993;42.672;23.296;2022-12-22T15:47:52;92.03;;;41.43;;
35891;SDS011;21993;42.672;23.296;2022-12-22T15:50:22;84.17;;;38.03;;
35891;SDS011;21993;42.672;23.296;2022-12-22T15:52:54;74.40;;;37.73;;
35891;SDS011;21993;42.672;23.296;2022-12-22T15:55:21;71.37;;;38.03;;
35891;SDS011;21993;42.672;23.296;2022-12-22T15:57:48;72.50;;;36.27;;
35891;SDS011;21993;42.672;23.296;2022-12-22T16:00:16;72.03;;;36.30;;
35891;SDS011;21993;42.672;23.296;2022-12-22T16:02:42;75.63;;;37.60;;
35891;SDS011;21993;42.672;23.296;2022-12-22T16:05:08;88.77;;;40.80;;
35891;SDS011;21993;42.672;23.296;2022-12-22T16:07:35;91.50;;;42.00;;
35891;SDS011;21993;42.672;23.296;2022-12-22T16:10:02;90.43;;;39.30;;
35891;SDS011;21993;42.672;23.296;2022-12-22T16:12:28;92.60;;;39.93;;
35891;SDS011;21993;42.672;23.296;2022-12-22T16:14:55;94.23;;;39.93;;
35891;SDS011;21993;42.672;23.296;2022-12-22T16:17:25;89.70;;;40.63;;
35891;SDS011;21993;42.672;23.296;2022-12-22T16:19:52;94.30;;;37.53;;
35891;SDS011;21993;42.672;23.296;2022-12-22T16:22:18;80.03;;;37.10;;
35891;SDS011;21993;42.672;23.296;2022-12-22T16:24:50;77.03;;;38.23;;
35891;SDS011;21993;42.672;23.296;2022-12-22T16:27:16;77.73;;;36.67;;
35891;SDS011;21993;42.672;23.296;2022-12-22T16:29:42;66.40;;;36.27;;
35891;SDS011;21993;42.672;23.296;2022-12-22T16:32:13;76.90;;;36.50;;
35891;SDS011;21993;42.672;23.296;2022-12-22T16:34:39;84.33;;;39.27;;
35891;SDS011;21993;42.672;23.296;2022-12-22T16:37:04;96.33;;;39.50;;
35891;SDS011;21993;42.672;23.296;2022-12-22T16:39:30;82.20;;;35.23;;
35891;SDS011;21993;42.672;23.296;2022-12-22T16:41:55;72.93;;;36.83;;
35891;SDS011;21993;42.672;23.296;2022-12-22T16:44:21;75.57;;;36.97;;
35891;SDS011;21993;42.672;23.296;2022-12-22T16:46:47;78.43;;;35.87;;
35891;SDS011;21993;42.672;23.296;2022-12-22T16:49:15;77.03;;;36.53;;
35891;SDS011;21993;42.672;23.296;2022-12-22T16:51:50;78.10;;;35.27;;
35891;SDS011;21993;42.672;23.296;2022-12-22T16:54:17;91.90;;;36.73;;
35891;SDS011;21993;42.672;23.296;2022-12-22T16:56:43;85.50;;;38.83;;
35891;SDS011;21993;42.672;23.296;2022-12-22T16:59:11;87.03;;;36.87;;
35891;SDS011;21993;42.672;23.296;2022-12-22T17:01:41;87.87;;;39.40;;
35891;SDS011;21993;42.672;23.296;2022-12-22T17:04:16;78.43;;;36.03;;
35891;SDS011;21993;42.672;23.296;2022-12-22T17:06:48;81.10;;;37.97;;
35891;SDS011;21993;42.672;23.296;2022-12-22T17:09:18;85.07;;;39.60;;